CFM5 weather

CLOSED Hamburg Airport
Apache, Alberta, Canada

Public forecast

Using degrees Celsius for public forecast. Weather courtesy of forecast.io.

Closest aviation weather report (METAR) to Hamburg Airport

Closest report is Fort St John Airport, 74.3 nm (137.7 km) SSW. Retrieved 2019/11/14 13:00 UTC (4 minutes ago):

CYXJ 141300Z 04002KT 3/4SM R30/4000VP6000FT/U BR VV007 M07/M08 A2998 RMK FG8 SLP198

Closest aviation forecast (TAF) to Hamburg Airport

Closest forecast is Fort St John Airport, 74.3 nm (137.7 km) SSW. Retrieved 2019/11/14 13:45 UTC (0 seconds ago):

TAF TAF CYXJ 141241Z 1413/1501 VRB03KT 1/4SM FZFG OVC002 TEMPO 1413/1415 4SM BR OVC008 FM141500 14010KT 6SM -SN BR BKN010 OVC060 TEMPO 1415/1420 2SM -SN BR OVC006 FM142000 14008KT P6SM SCT012 OVC060 TEMPO 1420/1501 OVC012 RMK NXT FCST BY 141900Z